Time;durP1;ratioP1;P1;durP2;ratioP2;P2;SDS_P1;SDS_P2;PMS_P1;PMS_P2;Temp;Humidity;BMP_temperature;BMP_pressure;BME280_temperature;BME280_humidity;BME280_pressure;Samples;Min_cycle;Max_cycle;Signal;HPM_P1;HPM_P2
2022/12/16 00:02:09;;;;;;;;;;;;;;;3.05;100.00;98610.75;6220173;23;19916;-84
2022/12/16 00:04:34;;;;;;;;;;;;;;;3.00;100.00;98613.50;6247076;23;19912;-84
2022/12/16 00:07:00;;;;;;;;;;;;;;;3.05;100.00;98606.34;6247426;23;19994;-84
2022/12/16 00:09:25;;;;;;;;;;;;;;;3.00;100.00;98613.50;6220973;23;19912;-86
2022/12/16 00:11:50;;;;;;;;;;;;;;;3.48;100.00;98616.34;6247412;23;19990;-84
2022/12/16 00:14:15;;;;;;;;;;;;;;;3.97;100.00;98614.69;6245680;23;19912;-86
2022/12/16 00:16:41;;;;;;;;;;;;;;;4.30;100.00;98614.44;6220553;23;19911;-88
2022/12/16 00:19:06;;;;;;;;;;;;;;;4.49;100.00;98614.63;6246258;23;20361;-84
2022/12/16 00:21:31;;;;;;;;;;;;;;;4.65;100.00;98615.75;6247410;23;19912;-86
2022/12/16 00:23:56;;;;;;;;;;;;;;;4.77;100.00;98614.47;6219015;23;20347;-85
2022/12/16 00:26:22;;;;;;;;;;;;;;;4.89;100.00;98607.88;6247401;23;19911;-84
2022/12/16 00:28:47;;;;;;;;;;;;;;;4.98;100.00;98602.28;6245439;23;19912;-85
2022/12/16 00:31:13;;;;;;;;;;;;;;;5.09;100.00;98610.59;6220055;23;19918;-84
2022/12/16 00:33:38;;;;;;;;;;;;;;;5.16;100.00;98612.97;6246427;23;19977;-85
2022/12/16 00:36:03;;;;;;;;;;;;;;;5.23;100.00;98615.28;6246790;23;19915;-82
2022/12/16 00:38:29;;;;;;;;;;;;;;;5.28;100.00;98615.97;6245638;23;19918;-84
2022/12/16 00:40:54;;;;;;;;;;;;;;;5.32;100.00;98613.22;6247167;23;20229;-87
2022/12/16 00:43:19;;;;;;;;;;;;;;;5.40;100.00;98614.59;6218911;23;19918;-87
2022/12/16 00:45:45;;;;;;;;;;;;;;;5.43;100.00;98619.75;6237298;23;19915;-87
2022/12/16 00:48:10;;;;;;;;;;;;;;;5.50;100.00;98624.75;6247163;23;19954;-86
2022/12/16 03:15:09;;;;;;;;;;;;;;;6.40;93.07;98711.31;6255032;22;20415;-89
2022/12/16 03:17:35;;;;;;;;;;;;;;;6.40;93.31;98722.72;6249603;22;20319;-89
2022/12/16 03:20:09;;;;;;;;;;;;;;;6.44;93.30;98724.28;6275137;22;19912;-88
2022/12/16 03:22:37;;;;;;;;;;;;;;;6.44;93.18;98726.06;6249582;22;20315;-89
2022/12/16 03:25:04;;;;;;;;;;;;;;;6.44;93.13;98724.28;6250203;22;19912;-89
2022/12/16 03:27:34;;;;;;;;;;;;;;;6.44;93.23;98728.69;6249605;22;20203;-90
2022/12/16 03:30:05;;;;;;;;;;;;;;;6.48;93.49;98727.66;6248295;22;19911;-91
2022/12/16 03:32:36;;;;;;;;;;;;;;;6.46;93.24;98740.88;6277218;22;19907;-89
2022/12/16 03:35:18;;;;;;;;;;;;;;;6.48;93.06;98736.38;6249646;22;19911;-89
2022/12/16 03:37:45;;;;;;;;;;;;;;;6.49;93.28;98735.47;6277030;22;19914;-88
2022/12/16 03:40:11;;;;;;;;;;;;;;;6.49;93.48;98739.88;6249607;22;19961;-85
2022/12/16 03:42:38;;;;;;;;;;;;;;;6.51;93.52;98740.66;6276515;22;19915;-89
2022/12/16 03:45:04;;;;;;;;;;;;;;;6.50;93.33;98733.69;6247992;22;19911;-92
2022/12/16 03:47:29;;;;;;;;;;;;;;;6.50;93.21;98734.53;6276630;22;19911;-84
2022/12/16 03:49:55;;;;;;;;;;;;;;;6.54;93.14;98737.88;6276464;22;19915;-91
2022/12/16 03:52:20;;;;;;;;;;;;;;;6.53;93.14;98738.84;6277058;22;19911;-85
2022/12/16 03:54:45;;;;;;;;;;;;;;;6.52;93.16;98748.47;6278424;22;20246;-88
2022/12/16 03:57:11;;;;;;;;;;;;;;;6.55;92.91;98743.09;6278435;22;19958;-88
2022/12/16 03:59:37;;;;;;;;;;;;;;;6.53;92.87;98744.09;6249996;22;20005;-88
2022/12/16 04:02:02;;;;;;;;;;;;;;;6.55;92.68;98750.13;6278109;22;20285;-87
2022/12/16 04:04:27;;;;;;;;;;;;;;;6.56;92.65;98746.59;6278250;22;19911;-85
2022/12/16 04:09:37;;;;;;;;;;;;;;;6.58;92.49;98741.25;6278274;22;19941;-87
2022/12/16 04:25:42;;;;;;;;;;;;;;;4.57;97.14;98777.00;6278174;22;19918;-84
2022/12/16 04:28:08;;;;;;;;;;;;;;;4.42;98.20;98787.13;6276964;22;19911;-85
2022/12/16 04:30:33;;;;;;;;;;;;;;;4.32;98.88;98785.69;6277533;22;19946;-87
